sensor_id;sensor_type;location;lat;lon;timestamp;P1;durP1;ratioP1;P2;durP2;ratioP2
81217;SDS011;70689;52.494;13.420;2023-08-07T00:00:35;5.40;;;2.28;;
81217;SDS011;70689;52.494;13.420;2023-08-07T00:03:01;4.00;;;2.30;;
81217;SDS011;70689;52.494;13.420;2023-08-07T00:05:27;4.25;;;2.40;;
81217;SDS011;70689;52.494;13.420;2023-08-07T00:07:53;5.00;;;2.55;;
81217;SDS011;70689;52.494;13.420;2023-08-07T00:10:19;3.40;;;2.50;;
81217;SDS011;70689;52.494;13.420;2023-08-07T00:12:44;3.25;;;2.38;;
81217;SDS011;70689;52.494;13.420;2023-08-07T00:15:10;4.75;;;2.25;;
81217;SDS011;70689;52.494;13.420;2023-08-07T00:17:36;5.68;;;2.78;;
81217;SDS011;70689;52.494;13.420;2023-08-07T00:20:03;4.45;;;3.10;;
81217;SDS011;70689;52.494;13.420;2023-08-07T00:22:29;3.92;;;2.80;;
81217;SDS011;70689;52.494;13.420;2023-08-07T00:24:55;5.40;;;2.65;;
81217;SDS011;70689;52.494;13.420;2023-08-07T00:27:21;3.78;;;2.90;;
81217;SDS011;70689;52.494;13.420;2023-08-07T00:29:46;5.07;;;2.90;;
81217;SDS011;70689;52.494;13.420;2023-08-07T00:32:12;3.90;;;2.85;;
81217;SDS011;70689;52.494;13.420;2023-08-07T00:34:38;5.43;;;2.88;;
81217;SDS011;70689;52.494;13.420;2023-08-07T00:37:03;5.07;;;3.20;;
81217;SDS011;70689;52.494;13.420;2023-08-07T00:39:29;5.18;;;2.80;;
81217;SDS011;70689;52.494;13.420;2023-08-07T00:41:55;5.75;;;2.78;;
81217;SDS011;70689;52.494;13.420;2023-08-07T00:44:20;5.95;;;3.15;;
81217;SDS011;70689;52.494;13.420;2023-08-07T00:46:48;5.35;;;3.00;;
81217;SDS011;70689;52.494;13.420;2023-08-07T00:49:14;4.55;;;2.75;;
81217;SDS011;70689;52.494;13.420;2023-08-07T00:51:39;5.38;;;3.00;;
81217;SDS011;70689;52.494;13.420;2023-08-07T00:54:05;5.70;;;2.83;;
81217;SDS011;70689;52.494;13.420;2023-08-07T00:56:34;7.80;;;3.45;;
81217;SDS011;70689;52.494;13.420;2023-08-07T00:59:00;5.72;;;2.85;;
81217;SDS011;70689;52.494;13.420;2023-08-07T01:01:26;4.75;;;3.05;;
81217;SDS011;70689;52.494;13.420;2023-08-07T01:03:52;3.10;;;2.80;;
81217;SDS011;70689;52.494;13.420;2023-08-07T01:06:18;7.80;;;3.10;;
81217;SDS011;70689;52.494;13.420;2023-08-07T01:08:44;3.13;;;2.58;;
81217;SDS011;70689;52.494;13.420;2023-08-07T01:17:29;7.05;;;2.60;;
81217;SDS011;70689;52.494;13.420;2023-08-07T01:19:31;4.18;;;2.60;;
81217;SDS011;70689;52.494;13.420;2023-08-07T01:22:12;3.40;;;2.55;;
81217;SDS011;70689;52.494;13.420;2023-08-07T01:24:40;4.97;;;2.75;;
81217;SDS011;70689;52.494;13.420;2023-08-07T01:30:02;4.72;;;2.60;;
81217;SDS011;70689;52.494;13.420;2023-08-07T01:35:01;5.10;;;2.75;;
81217;SDS011;70689;52.494;13.420;2023-08-07T01:37:29;4.07;;;2.78;;
81217;SDS011;70689;52.494;13.420;2023-08-07T01:39:57;5.28;;;2.90;;
81217;SDS011;70689;52.494;13.420;2023-08-07T01:42:25;4.50;;;3.00;;
81217;SDS011;70689;52.494;13.420;2023-08-07T01:44:51;5.03;;;2.90;;
81217;SDS011;70689;52.494;13.420;2023-08-07T01:47:17;9.25;;;2.65;;
81217;SDS011;70689;52.494;13.420;2023-08-07T01:49:43;3.95;;;3.05;;
81217;SDS011;70689;52.494;13.420;2023-08-07T01:52:09;3.95;;;3.05;;
81217;SDS011;70689;52.494;13.420;2023-08-07T01:54:36;4.40;;;3.03;;
81217;SDS011;70689;52.494;13.420;2023-08-07T01:57:02;3.72;;;2.80;;
81217;SDS011;70689;52.494;13.420;2023-08-07T01:59:27;4.18;;;2.95;;
81217;SDS011;70689;52.494;13.420;2023-08-07T02:01:53;4.75;;;3.20;;
81217;SDS011;70689;52.494;13.420;2023-08-07T02:04:18;4.07;;;3.10;;
81217;SDS011;70689;52.494;13.420;2023-08-07T02:06:44;4.60;;;2.92;;
81217;SDS011;70689;52.494;13.420;2023-08-07T02:09:10;4.63;;;2.90;;
81217;SDS011;70689;52.494;13.420;2023-08-07T02:11:35;4.40;;;3.22;;
81217;SDS011;70689;52.494;13.420;2023-08-07T02:14:01;5.53;;;3.33;;
81217;SDS011;70689;52.494;13.420;2023-08-07T02:16:26;7.70;;;3.75;;
81217;SDS011;70689;52.494;13.420;2023-08-07T02:18:52;5.72;;;3.20;;
81217;SDS011;70689;52.494;13.420;2023-08-07T02:21:18;7.32;;;3.90;;
81217;SDS011;70689;52.494;13.420;2023-08-07T02:23:43;11.20;;;3.55;;
81217;SDS011;70689;52.494;13.420;2023-08-07T02:26:09;7.30;;;3.70;;
81217;SDS011;70689;52.494;13.420;2023-08-07T02:28:35;7.15;;;3.47;;
81217;SDS011;70689;52.494;13.420;2023-08-07T02:31:00;8.52;;;3.55;;
81217;SDS011;70689;52.494;13.420;2023-08-07T02:33:26;5.70;;;3.70;;
81217;SDS011;70689;52.494;13.420;2023-08-07T02:35:51;6.22;;;3.63;;
81217;SDS011;70689;52.494;13.420;2023-08-07T02:38:17;4.95;;;3.60;;
81217;SDS011;70689;52.494;13.420;2023-08-07T02:40:43;8.20;;;3.70;;
81217;SDS011;70689;52.494;13.420;2023-08-07T02:43:08;9.25;;;3.80;;
81217;SDS011;70689;52.494;13.420;2023-08-07T02:45:34;6.75;;;3.55;;
81217;SDS011;70689;52.494;13.420;2023-08-07T02:48:00;8.20;;;4.50;;
81217;SDS011;70689;52.494;13.420;2023-08-07T02:50:26;5.20;;;3.70;;
81217;SDS011;70689;52.494;13.420;2023-08-07T02:52:54;5.97;;;4.03;;
81217;SDS011;70689;52.494;13.420;2023-08-07T02:55:20;8.32;;;3.78;;
81217;SDS011;70689;52.494;13.420;2023-08-07T02:57:45;6.63;;;3.95;;
81217;SDS011;70689;52.494;13.420;2023-08-07T03:00:11;10.57;;;4.43;;
81217;SDS011;70689;52.494;13.420;2023-08-07T03:02:37;7.53;;;4.00;;
81217;SDS011;70689;52.494;13.420;2023-08-07T03:05:03;6.93;;;3.95;;
81217;SDS011;70689;52.494;13.420;2023-08-07T03:07:28;5.47;;;3.65;;
81217;SDS011;70689;52.494;13.420;2023-08-07T03:09:54;7.05;;;3.78;;
81217;SDS011;70689;52.494;13.420;2023-08-07T03:12:20;7.38;;;3.97;;
81217;SDS011;70689;52.494;13.420;2023-08-07T03:14:46;6.38;;;3.90;;
81217;SDS011;70689;52.494;13.420;2023-08-07T03:17:11;7.70;;;4.13;;
81217;SDS011;70689;52.494;13.420;2023-08-07T03:19:39;7.15;;;4.03;;
81217;SDS011;70689;52.494;13.420;2023-08-07T03:22:10;7.35;;;4.45;;
81217;SDS011;70689;52.494;13.420;2023-08-07T03:24:45;6.50;;;4.03;;
81217;SDS011;70689;52.494;13.420;2023-08-07T03:27:12;5.75;;;4.25;;
81217;SDS011;70689;52.494;13.420;2023-08-07T03:29:38;6.30;;;4.57;;
81217;SDS011;70689;52.494;13.420;2023-08-07T03:32:04;8.55;;;4.82;;
81217;SDS011;70689;52.494;13.420;2023-08-07T03:34:30;8.23;;;4.30;;
81217;SDS011;70689;52.494;13.420;2023-08-07T03:36:55;9.25;;;4.57;;
81217;SDS011;70689;52.494;13.420;2023-08-07T03:39:21;9.27;;;4.55;;
81217;SDS011;70689;52.494;13.420;2023-08-07T03:41:47;9.95;;;4.28;;
81217;SDS011;70689;52.494;13.420;2023-08-07T03:44:12;9.23;;;4.57;;
81217;SDS011;70689;52.494;13.420;2023-08-07T03:46:38;6.75;;;4.60;;
81217;SDS011;70689;52.494;13.420;2023-08-07T03:49:03;8.07;;;4.65;;
81217;SDS011;70689;52.494;13.420;2023-08-07T03:51:29;8.38;;;4.65;;
81217;SDS011;70689;52.494;13.420;2023-08-07T03:53:57;9.27;;;4.68;;
81217;SDS011;70689;52.494;13.420;2023-08-07T03:56:22;5.45;;;4.40;;
81217;SDS011;70689;52.494;13.420;2023-08-07T03:58:48;7.63;;;4.75;;
81217;SDS011;70689;52.494;13.420;2023-08-07T04:01:15;7.47;;;4.25;;
81217;SDS011;70689;52.494;13.420;2023-08-07T04:03:41;10.32;;;4.72;;
81217;SDS011;70689;52.494;13.420;2023-08-07T04:06:07;10.85;;;4.32;;
81217;SDS011;70689;52.494;13.420;2023-08-07T04:08:32;7.68;;;4.60;;
81217;SDS011;70689;52.494;13.420;2023-08-07T04:11:02;7.22;;;4.75;;
81217;SDS011;70689;52.494;13.420;2023-08-07T04:13:33;6.80;;;4.30;;
81217;SDS011;70689;52.494;13.420;2023-08-07T04:15:59;8.32;;;4.72;;
81217;SDS011;70689;52.494;13.420;2023-08-07T04:18:26;6.93;;;4.38;;
81217;SDS011;70689;52.494;13.420;2023-08-07T04:20:52;7.72;;;4.47;;
81217;SDS011;70689;52.494;13.420;2023-08-07T04:23:22;7.07;;;4.60;;
81217;SDS011;70689;52.494;13.420;2023-08-07T04:25:48;7.72;;;4.25;;
81217;SDS011;70689;52.494;13.420;2023-08-07T04:28:14;6.95;;;4.45;;
81217;SDS011;70689;52.494;13.420;2023-08-07T04:30:40;5.55;;;4.20;;
81217;SDS011;70689;52.494;13.420;2023-08-07T04:33:07;9.05;;;4.30;;
81217;SDS011;70689;52.494;13.420;2023-08-07T04:35:33;6.22;;;4.15;;
81217;SDS011;70689;52.494;13.420;2023-08-07T04:37:59;5.50;;;3.95;;
81217;SDS011;70689;52.494;13.420;2023-08-07T04:40:25;7.40;;;4.30;;
81217;SDS011;70689;52.494;13.420;2023-08-07T04:42:51;6.07;;;3.90;;
81217;SDS011;70689;52.494;13.420;2023-08-07T04:45:16;8.70;;;4.10;;
81217;SDS011;70689;52.494;13.420;2023-08-07T04:47:42;8.60;;;3.85;;
81217;SDS011;70689;52.494;13.420;2023-08-07T04:50:08;8.52;;;4.05;;
81217;SDS011;70689;52.494;13.420;2023-08-07T04:55:32;7.63;;;4.03;;
81217;SDS011;70689;52.494;13.420;2023-08-07T04:57:57;7.72;;;3.72;;
81217;SDS011;70689;52.494;13.420;2023-08-07T05:00:24;5.95;;;3.75;;
81217;SDS011;70689;52.494;13.420;2023-08-07T05:02:49;5.88;;;3.45;;
81217;SDS011;70689;52.494;13.420;2023-08-07T05:05:16;7.47;;;3.42;;
81217;SDS011;70689;52.494;13.420;2023-08-07T05:10:16;8.45;;;5.07;;
81217;SDS011;70689;52.494;13.420;2023-08-07T05:12:41;8.45;;;3.75;;
81217;SDS011;70689;52.494;13.420;2023-08-07T05:15:07;7.95;;;3.80;;
81217;SDS011;70689;52.494;13.420;2023-08-07T05:17:33;4.88;;;3.20;;
81217;SDS011;70689;52.494;13.420;2023-08-07T05:19:58;6.47;;;3.47;;
81217;SDS011;70689;52.494;13.420;2023-08-07T05:22:24;6.43;;;3.35;;
81217;SDS011;70689;52.494;13.420;2023-08-07T05:24:50;6.90;;;3.28;;
81217;SDS011;70689;52.494;13.420;2023-08-07T05:27:15;7.43;;;3.47;;
81217;SDS011;70689;52.494;13.420;2023-08-07T05:29:41;5.82;;;3.00;;
81217;SDS011;70689;52.494;13.420;2023-08-07T05:32:10;6.35;;;3.40;;
81217;SDS011;70689;52.494;13.420;2023-08-07T05:34:36;5.43;;;3.83;;
81217;SDS011;70689;52.494;13.420;2023-08-07T05:37:02;7.38;;;3.28;;
81217;SDS011;70689;52.494;13.420;2023-08-07T05:39:28;5.75;;;3.20;;
81217;SDS011;70689;52.494;13.420;2023-08-07T05:41:53;5.53;;;3.25;;
81217;SDS011;70689;52.494;13.420;2023-08-07T05:44:22;7.22;;;3.40;;
81217;SDS011;70689;52.494;13.420;2023-08-07T05:46:51;6.45;;;3.60;;
81217;SDS011;70689;52.494;13.420;2023-08-07T05:49:17;5.43;;;3.20;;
81217;SDS011;70689;52.494;13.420;2023-08-07T05:51:42;6.40;;;4.10;;
81217;SDS011;70689;52.494;13.420;2023-08-07T05:54:08;6.13;;;3.20;;
81217;SDS011;70689;52.494;13.420;2023-08-07T05:56:34;5.35;;;3.33;;
81217;SDS011;70689;52.494;13.420;2023-08-07T05:58:59;5.70;;;3.78;;
81217;SDS011;70689;52.494;13.420;2023-08-07T06:01:25;4.85;;;3.20;;
81217;SDS011;70689;52.494;13.420;2023-08-07T06:03:59;6.05;;;3.60;;
81217;SDS011;70689;52.494;13.420;2023-08-07T06:06:26;5.32;;;3.03;;
81217;SDS011;70689;52.494;13.420;2023-08-07T06:08:55;5.55;;;3.40;;
81217;SDS011;70689;52.494;13.420;2023-08-07T06:11:20;5.95;;;3.38;;
81217;SDS011;70689;52.494;13.420;2023-08-07T06:13:46;6.63;;;3.25;;
81217;SDS011;70689;52.494;13.420;2023-08-07T06:16:12;6.82;;;3.33;;
81217;SDS011;70689;52.494;13.420;2023-08-07T06:18:37;5.57;;;3.10;;
81217;SDS011;70689;52.494;13.420;2023-08-07T06:21:03;6.78;;;3.20;;
81217;SDS011;70689;52.494;13.420;2023-08-07T06:23:32;6.22;;;3.30;;
81217;SDS011;70689;52.494;13.420;2023-08-07T06:25:58;6.05;;;3.03;;
81217;SDS011;70689;52.494;13.420;2023-08-07T06:28:25;5.80;;;3.08;;
81217;SDS011;70689;52.494;13.420;2023-08-07T06:30:51;5.25;;;2.90;;
81217;SDS011;70689;52.494;13.420;2023-08-07T06:33:16;4.35;;;2.55;;
81217;SDS011;70689;52.494;13.420;2023-08-07T06:35:42;5.03;;;2.80;;
81217;SDS011;70689;52.494;13.420;2023-08-07T06:38:08;5.45;;;2.70;;
81217;SDS011;70689;52.494;13.420;2023-08-07T06:40:36;5.43;;;2.40;;
81217;SDS011;70689;52.494;13.420;2023-08-07T06:43:02;4.05;;;2.50;;
81217;SDS011;70689;52.494;13.420;2023-08-07T06:45:28;4.53;;;2.70;;
81217;SDS011;70689;52.494;13.420;2023-08-07T06:47:54;3.33;;;2.38;;
81217;SDS011;70689;52.494;13.420;2023-08-07T06:50:20;4.65;;;2.20;;
81217;SDS011;70689;52.494;13.420;2023-08-07T06:52:46;4.10;;;2.40;;
81217;SDS011;70689;52.494;13.420;2023-08-07T06:55:12;5.13;;;2.63;;
81217;SDS011;70689;52.494;13.420;2023-08-07T06:57:37;6.30;;;2.40;;
81217;SDS011;70689;52.494;13.420;2023-08-07T07:00:03;2.50;;;2.30;;
81217;SDS011;70689;52.494;13.420;2023-08-07T07:02:30;7.50;;;4.13;;
81217;SDS011;70689;52.494;13.420;2023-08-07T07:04:55;6.80;;;4.47;;
81217;SDS011;70689;52.494;13.420;2023-08-07T07:07:21;4.65;;;2.40;;
81217;SDS011;70689;52.494;13.420;2023-08-07T07:09:46;4.60;;;2.20;;
81217;SDS011;70689;52.494;13.420;2023-08-07T07:12:12;3.03;;;2.28;;
81217;SDS011;70689;52.494;13.420;2023-08-07T07:14:38;3.70;;;2.10;;
81217;SDS011;70689;52.494;13.420;2023-08-07T07:17:03;3.45;;;2.30;;
81217;SDS011;70689;52.494;13.420;2023-08-07T07:19:29;3.25;;;1.90;;
81217;SDS011;70689;52.494;13.420;2023-08-07T07:21:55;6.00;;;2.17;;
81217;SDS011;70689;52.494;13.420;2023-08-07T07:24:20;4.57;;;2.30;;
81217;SDS011;70689;52.494;13.420;2023-08-07T07:26:46;5.43;;;2.05;;
81217;SDS011;70689;52.494;13.420;2023-08-07T07:29:11;6.20;;;2.20;;
81217;SDS011;70689;52.494;13.420;2023-08-07T07:31:37;3.70;;;1.88;;
81217;SDS011;70689;52.494;13.420;2023-08-07T07:34:03;4.13;;;1.75;;
81217;SDS011;70689;52.494;13.420;2023-08-07T07:36:28;5.53;;;2.10;;
81217;SDS011;70689;52.494;13.420;2023-08-07T07:38:54;6.30;;;3.92;;
81217;SDS011;70689;52.494;13.420;2023-08-07T07:41:21;5.80;;;3.08;;
81217;SDS011;70689;52.494;13.420;2023-08-07T07:43:47;3.55;;;2.00;;
81217;SDS011;70689;52.494;13.420;2023-08-07T07:46:13;3.90;;;1.85;;
81217;SDS011;70689;52.494;13.420;2023-08-07T07:48:38;3.00;;;1.73;;
81217;SDS011;70689;52.494;13.420;2023-08-07T07:51:04;3.55;;;1.98;;
81217;SDS011;70689;52.494;13.420;2023-08-07T07:53:33;4.93;;;2.03;;
81217;SDS011;70689;52.494;13.420;2023-08-07T07:55:59;3.47;;;2.10;;
81217;SDS011;70689;52.494;13.420;2023-08-07T07:58:25;5.50;;;2.00;;
81217;SDS011;70689;52.494;13.420;2023-08-07T08:00:50;5.57;;;2.42;;
81217;SDS011;70689;52.494;13.420;2023-08-07T08:03:19;5.97;;;3.13;;
81217;SDS011;70689;52.494;13.420;2023-08-07T08:05:48;4.68;;;2.55;;
81217;SDS011;70689;52.494;13.420;2023-08-07T08:08:15;5.68;;;2.17;;
81217;SDS011;70689;52.494;13.420;2023-08-07T08:10:41;4.78;;;1.90;;
81217;SDS011;70689;52.494;13.420;2023-08-07T08:13:08;2.53;;;1.90;;
81217;SDS011;70689;52.494;13.420;2023-08-07T08:15:34;3.25;;;1.98;;
81217;SDS011;70689;52.494;13.420;2023-08-07T08:18:00;4.07;;;2.05;;
81217;SDS011;70689;52.494;13.420;2023-08-07T08:20:25;3.80;;;2.00;;
81217;SDS011;70689;52.494;13.420;2023-08-07T08:22:51;4.47;;;2.10;;
81217;SDS011;70689;52.494;13.420;2023-08-07T08:25:17;3.28;;;2.20;;
81217;SDS011;70689;52.494;13.420;2023-08-07T08:27:43;2.55;;;2.03;;
81217;SDS011;70689;52.494;13.420;2023-08-07T08:30:08;6.25;;;2.35;;
81217;SDS011;70689;52.494;13.420;2023-08-07T08:32:34;3.20;;;2.28;;
81217;SDS011;70689;52.494;13.420;2023-08-07T08:35:00;4.45;;;2.33;;
81217;SDS011;70689;52.494;13.420;2023-08-07T08:37:26;11.15;;;3.00;;
81217;SDS011;70689;52.494;13.420;2023-08-07T08:39:51;7.18;;;2.40;;
81217;SDS011;70689;52.494;13.420;2023-08-07T08:42:17;7.55;;;4.75;;
81217;SDS011;70689;52.494;13.420;2023-08-07T08:44:45;4.95;;;3.20;;
81217;SDS011;70689;52.494;13.420;2023-08-07T08:47:20;7.82;;;3.47;;
81217;SDS011;70689;52.494;13.420;2023-08-07T08:49:48;5.90;;;2.58;;
81217;SDS011;70689;52.494;13.420;2023-08-07T08:52:15;7.65;;;2.72;;
81217;SDS011;70689;52.494;13.420;2023-08-07T08:54:41;4.85;;;2.25;;
81217;SDS011;70689;52.494;13.420;2023-08-07T08:57:09;3.00;;;2.10;;
81217;SDS011;70689;52.494;13.420;2023-08-07T08:59:36;6.45;;;2.20;;
81217;SDS011;70689;52.494;13.420;2023-08-07T09:02:01;4.97;;;2.30;;
81217;SDS011;70689;52.494;13.420;2023-08-07T09:04:28;2.60;;;1.90;;
81217;SDS011;70689;52.494;13.420;2023-08-07T09:06:54;3.95;;;2.10;;
81217;SDS011;70689;52.494;13.420;2023-08-07T09:09:20;5.97;;;2.03;;
81217;SDS011;70689;52.494;13.420;2023-08-07T09:11:47;4.10;;;2.08;;
81217;SDS011;70689;52.494;13.420;2023-08-07T09:14:19;5.63;;;2.20;;
81217;SDS011;70689;52.494;13.420;2023-08-07T09:16:49;4.70;;;2.08;;
81217;SDS011;70689;52.494;13.420;2023-08-07T09:19:15;4.63;;;2.50;;
81217;SDS011;70689;52.494;13.420;2023-08-07T09:21:41;3.50;;;2.00;;
81217;SDS011;70689;52.494;13.420;2023-08-07T09:24:06;4.50;;;1.92;;
81217;SDS011;70689;52.494;13.420;2023-08-07T09:26:32;3.85;;;2.00;;
81217;SDS011;70689;52.494;13.420;2023-08-07T09:28:59;6.13;;;2.08;;
81217;SDS011;70689;52.494;13.420;2023-08-07T09:31:24;5.30;;;2.30;;
81217;SDS011;70689;52.494;13.420;2023-08-07T09:33:51;7.40;;;2.70;;
81217;SDS011;70689;52.494;13.420;2023-08-07T09:36:17;6.15;;;2.45;;
81217;SDS011;70689;52.494;13.420;2023-08-07T09:38:43;3.42;;;2.10;;
81217;SDS011;70689;52.494;13.420;2023-08-07T09:41:14;3.60;;;2.17;;
81217;SDS011;70689;52.494;13.420;2023-08-07T09:43:43;5.65;;;2.00;;
81217;SDS011;70689;52.494;13.420;2023-08-07T09:46:08;3.90;;;2.00;;
81217;SDS011;70689;52.494;13.420;2023-08-07T09:48:41;3.53;;;1.88;;
81217;SDS011;70689;52.494;13.420;2023-08-07T09:51:08;3.30;;;1.90;;
81217;SDS011;70689;52.494;13.420;2023-08-07T09:53:34;3.50;;;1.70;;
81217;SDS011;70689;52.494;13.420;2023-08-07T09:56:00;6.45;;;1.83;;
81217;SDS011;70689;52.494;13.420;2023-08-07T09:58:26;2.65;;;1.88;;
81217;SDS011;70689;52.494;13.420;2023-08-07T10:00:53;3.88;;;2.00;;
81217;SDS011;70689;52.494;13.420;2023-08-07T10:03:20;5.15;;;1.90;;
81217;SDS011;70689;52.494;13.420;2023-08-07T10:05:47;2.30;;;1.65;;
81217;SDS011;70689;52.494;13.420;2023-08-07T10:08:13;7.50;;;2.10;;
81217;SDS011;70689;52.494;13.420;2023-08-07T10:10:39;4.32;;;1.63;;
81217;SDS011;70689;52.494;13.420;2023-08-07T10:13:05;3.20;;;1.83;;
81217;SDS011;70689;52.494;13.420;2023-08-07T10:15:31;7.40;;;1.70;;
81217;SDS011;70689;52.494;13.420;2023-08-07T10:17:58;3.80;;;1.58;;
81217;SDS011;70689;52.494;13.420;2023-08-07T10:20:27;3.25;;;1.77;;
81217;SDS011;70689;52.494;13.420;2023-08-07T10:23:00;3.10;;;1.65;;
81217;SDS011;70689;52.494;13.420;2023-08-07T10:25:32;3.25;;;1.80;;
81217;SDS011;70689;52.494;13.420;2023-08-07T10:27:59;2.22;;;1.40;;
81217;SDS011;70689;52.494;13.420;2023-08-07T10:30:26;4.13;;;1.80;;
81217;SDS011;70689;52.494;13.420;2023-08-07T10:32:53;2.17;;;1.38;;
81217;SDS011;70689;52.494;13.420;2023-08-07T10:35:28;13.38;;;5.70;;
81217;SDS011;70689;52.494;13.420;2023-08-07T10:37:55;6.80;;;4.45;;
81217;SDS011;70689;52.494;13.420;2023-08-07T10:43:23;3.22;;;1.50;;
81217;SDS011;70689;52.494;13.420;2023-08-07T10:45:50;4.90;;;1.83;;
81217;SDS011;70689;52.494;13.420;2023-08-07T10:48:19;3.03;;;1.30;;
81217;SDS011;70689;52.494;13.420;2023-08-07T10:53:24;2.22;;;1.45;;
81217;SDS011;70689;52.494;13.420;2023-08-07T10:55:57;3.60;;;1.75;;
81217;SDS011;70689;52.494;13.420;2023-08-07T10:58:29;3.50;;;1.60;;
81217;SDS011;70689;52.494;13.420;2023-08-07T11:03:42;1.65;;;1.25;;
81217;SDS011;70689;52.494;13.420;2023-08-07T11:06:11;5.07;;;3.33;;
81217;SDS011;70689;52.494;13.420;2023-08-07T11:08:37;4.72;;;2.20;;
81217;SDS011;70689;52.494;13.420;2023-08-07T11:11:04;2.22;;;1.50;;
81217;SDS011;70689;52.494;13.420;2023-08-07T11:13:31;5.72;;;1.67;;
81217;SDS011;70689;52.494;13.420;2023-08-07T11:15:57;2.72;;;1.70;;
81217;SDS011;70689;52.494;13.420;2023-08-07T11:18:24;2.17;;;1.40;;
81217;SDS011;70689;52.494;13.420;2023-08-07T11:20:50;3.83;;;1.38;;
81217;SDS011;70689;52.494;13.420;2023-08-07T11:23:22;3.70;;;1.73;;
81217;SDS011;70689;52.494;13.420;2023-08-07T11:25:49;8.75;;;2.10;;
81217;SDS011;70689;52.494;13.420;2023-08-07T11:28:17;2.78;;;1.88;;
81217;SDS011;70689;52.494;13.420;2023-08-07T11:30:53;4.65;;;2.00;;
81217;SDS011;70689;52.494;13.420;2023-08-07T11:33:23;3.17;;;2.20;;
81217;SDS011;70689;52.494;13.420;2023-08-07T11:35:50;4.25;;;2.10;;
81217;SDS011;70689;52.494;13.420;2023-08-07T11:38:29;3.65;;;2.08;;
81217;SDS011;70689;52.494;13.420;2023-08-07T11:40:57;4.15;;;1.90;;
81217;SDS011;70689;52.494;13.420;2023-08-07T11:43:24;4.70;;;2.30;;
81217;SDS011;70689;52.494;13.420;2023-08-07T11:45:51;4.82;;;1.90;;
81217;SDS011;70689;52.494;13.420;2023-08-07T11:48:17;5.60;;;1.92;;
81217;SDS011;70689;52.494;13.420;2023-08-07T11:50:43;3.88;;;2.00;;
81217;SDS011;70689;52.494;13.420;2023-08-07T11:53:08;2.92;;;2.30;;
81217;SDS011;70689;52.494;13.420;2023-08-07T11:55:34;4.25;;;2.30;;
81217;SDS011;70689;52.494;13.420;2023-08-07T11:58:02;4.00;;;2.20;;
81217;SDS011;70689;52.494;13.420;2023-08-07T12:00:28;3.08;;;1.80;;
81217;SDS011;70689;52.494;13.420;2023-08-07T12:02:54;6.80;;;2.22;;
81217;SDS011;70689;52.494;13.420;2023-08-07T12:05:20;4.80;;;2.05;;
81217;SDS011;70689;52.494;13.420;2023-08-07T12:07:46;2.67;;;1.67;;
81217;SDS011;70689;52.494;13.420;2023-08-07T12:10:13;3.28;;;1.88;;
81217;SDS011;70689;52.494;13.420;2023-08-07T12:12:39;5.57;;;1.92;;
81217;SDS011;70689;52.494;13.420;2023-08-07T12:15:08;5.07;;;1.75;;
81217;SDS011;70689;52.494;13.420;2023-08-07T12:17:35;4.60;;;2.00;;
81217;SDS011;70689;52.494;13.420;2023-08-07T12:20:03;4.13;;;1.80;;
81217;SDS011;70689;52.494;13.420;2023-08-07T12:22:31;5.90;;;1.90;;
81217;SDS011;70689;52.494;13.420;2023-08-07T12:24:57;3.88;;;1.90;;
81217;SDS011;70689;52.494;13.420;2023-08-07T12:27:22;5.93;;;1.63;;
81217;SDS011;70689;52.494;13.420;2023-08-07T12:29:48;5.10;;;2.10;;
81217;SDS011;70689;52.494;13.420;2023-08-07T12:32:14;4.53;;;2.15;;
81217;SDS011;70689;52.494;13.420;2023-08-07T12:34:39;4.75;;;1.88;;
81217;SDS011;70689;52.494;13.420;2023-08-07T12:37:05;4.82;;;1.90;;
81217;SDS011;70689;52.494;13.420;2023-08-07T12:39:31;7.25;;;2.17;;
81217;SDS011;70689;52.494;13.420;2023-08-07T12:41:57;4.22;;;2.00;;
81217;SDS011;70689;52.494;13.420;2023-08-07T12:44:23;6.50;;;2.30;;
81217;SDS011;70689;52.494;13.420;2023-08-07T12:46:48;4.50;;;2.00;;
81217;SDS011;70689;52.494;13.420;2023-08-07T12:49:14;5.38;;;2.10;;
81217;SDS011;70689;52.494;13.420;2023-08-07T12:51:40;5.20;;;2.28;;
81217;SDS011;70689;52.494;13.420;2023-08-07T12:54:06;4.65;;;2.08;;
81217;SDS011;70689;52.494;13.420;2023-08-07T12:56:31;5.55;;;1.95;;
81217;SDS011;70689;52.494;13.420;2023-08-07T12:58:57;6.25;;;2.30;;
81217;SDS011;70689;52.494;13.420;2023-08-07T13:01:23;6.75;;;2.10;;
81217;SDS011;70689;52.494;13.420;2023-08-07T13:03:48;7.93;;;2.40;;
81217;SDS011;70689;52.494;13.420;2023-08-07T13:06:14;4.75;;;2.22;;
81217;SDS011;70689;52.494;13.420;2023-08-07T13:08:40;5.03;;;2.00;;
81217;SDS011;70689;52.494;13.420;2023-08-07T13:11:05;6.82;;;2.03;;
81217;SDS011;70689;52.494;13.420;2023-08-07T13:13:31;8.35;;;2.10;;
81217;SDS011;70689;52.494;13.420;2023-08-07T13:15:57;5.95;;;1.88;;
81217;SDS011;70689;52.494;13.420;2023-08-07T13:18:24;6.80;;;2.47;;
81217;SDS011;70689;52.494;13.420;2023-08-07T13:20:49;6.93;;;1.90;;
81217;SDS011;70689;52.494;13.420;2023-08-07T13:23:15;6.70;;;3.22;;
81217;SDS011;70689;52.494;13.420;2023-08-07T13:25:41;8.15;;;3.42;;
81217;SDS011;70689;52.494;13.420;2023-08-07T13:28:06;6.40;;;2.30;;
81217;SDS011;70689;52.494;13.420;2023-08-07T13:30:32;8.65;;;3.70;;
81217;SDS011;70689;52.494;13.420;2023-08-07T13:32:58;8.65;;;2.05;;
81217;SDS011;70689;52.494;13.420;2023-08-07T13:35:24;6.47;;;1.90;;
81217;SDS011;70689;52.494;13.420;2023-08-07T13:37:50;6.43;;;1.50;;
81217;SDS011;70689;52.494;13.420;2023-08-07T13:40:15;4.47;;;1.67;;
81217;SDS011;70689;52.494;13.420;2023-08-07T13:42:41;5.55;;;1.80;;
81217;SDS011;70689;52.494;13.420;2023-08-07T13:45:06;5.43;;;1.80;;
81217;SDS011;70689;52.494;13.420;2023-08-07T13:47:32;5.35;;;2.20;;
81217;SDS011;70689;52.494;13.420;2023-08-07T13:49:58;8.70;;;2.05;;
81217;SDS011;70689;52.494;13.420;2023-08-07T13:52:24;5.28;;;1.90;;
81217;SDS011;70689;52.494;13.420;2023-08-07T13:54:52;6.55;;;1.77;;
81217;SDS011;70689;52.494;13.420;2023-08-07T13:57:18;7.25;;;1.63;;
81217;SDS011;70689;52.494;13.420;2023-08-07T13:59:44;4.68;;;1.90;;
81217;SDS011;70689;52.494;13.420;2023-08-07T14:02:09;4.10;;;1.67;;
81217;SDS011;70689;52.494;13.420;2023-08-07T14:04:35;5.78;;;1.70;;
81217;SDS011;70689;52.494;13.420;2023-08-07T14:07:01;8.57;;;2.13;;
81217;SDS011;70689;52.494;13.420;2023-08-07T14:09:27;5.25;;;1.85;;
81217;SDS011;70689;52.494;13.420;2023-08-07T14:11:53;7.75;;;1.77;;
81217;SDS011;70689;52.494;13.420;2023-08-07T14:14:18;5.28;;;2.40;;
81217;SDS011;70689;52.494;13.420;2023-08-07T14:16:44;4.90;;;1.98;;
81217;SDS011;70689;52.494;13.420;2023-08-07T14:19:10;5.15;;;1.95;;
81217;SDS011;70689;52.494;13.420;2023-08-07T14:21:35;5.28;;;2.10;;
81217;SDS011;70689;52.494;13.420;2023-08-07T14:24:01;6.28;;;1.92;;
81217;SDS011;70689;52.494;13.420;2023-08-07T14:26:27;6.93;;;1.98;;
81217;SDS011;70689;52.494;13.420;2023-08-07T14:28:52;5.53;;;2.00;;
81217;SDS011;70689;52.494;13.420;2023-08-07T14:31:18;6.03;;;1.88;;
81217;SDS011;70689;52.494;13.420;2023-08-07T14:33:43;8.07;;;1.80;;
81217;SDS011;70689;52.494;13.420;2023-08-07T14:36:09;10.93;;;2.60;;
81217;SDS011;70689;52.494;13.420;2023-08-07T14:38:35;5.00;;;1.73;;
81217;SDS011;70689;52.494;13.420;2023-08-07T14:41:00;5.97;;;1.77;;
81217;SDS011;70689;52.494;13.420;2023-08-07T14:43:30;4.65;;;1.60;;
81217;SDS011;70689;52.494;13.420;2023-08-07T14:45:56;4.57;;;1.83;;
81217;SDS011;70689;52.494;13.420;2023-08-07T14:48:22;7.85;;;2.17;;
81217;SDS011;70689;52.494;13.420;2023-08-07T14:50:48;8.27;;;1.75;;
81217;SDS011;70689;52.494;13.420;2023-08-07T14:53:14;6.90;;;2.40;;